Airfield :
LOGIN :

Register | Disclaimer

   EN    FR    IT 

 










Legend :    VFR   Marginal VFR   IFR   Intensive IFR   Very Intensive IFR
Visi :
Ceiling :
>= 8 km
>= 3000ft
5 to 8 km
1000 to 3000 ft
1500m to 5 km
500 to 1000 ft
800 to 1500m
200 to 500 ft
< 800m
< 200 ft
Symbols :   Thunderstorms  Fog  Heavy snow  Heavy precipitations  Wind > 20 kt
SIGMETs :     Misc.  Thunderstorms  Icing  Turbulence  Mountain Waves  Volcanic Ashes







- Airport Elevation : -15 ft
- IATA code : RTM


EHRD - Rotterdam Zestienhoven

CURRENT METAR :
  • 200925Z AUTO 06006KT 360V130 9999 NCD 18/10 Q1023 NOSIG

EXPIRED METARs :
  • 200855Z AUTO 05004KT 340V130 9999 NCD 17/12 Q1024 NOSIG
  • 200825Z AUTO 04003KT 310V110 9999 NCD 15/11 Q1024 NOSIG
  • 200755Z AUTO 04003KT 330V100 7000 FEW004 14/11 Q1024 BECMG CAVOK
  • 200725Z AUTO 02003KT 330V060 3600 BR BKN002 OVC004 11/11 Q1024 BECMG CAVOK
  • 200655Z AUTO 04004KT 010V080 1900 BR OVC001 10/10 Q1023 BECMG 3000 NSC

TAF TAF EHRD
Valid from the 20 at 06:00 until the 21 at 12:00 UTC


200501Z 2006/2112 VRB03KT 0800 FG NSC
BECMG 2006/2008 09007KT CAVOK
BECMG 2015/2018 04010KT
BECMG 2022/2101 07007KT
BECMG 2108/2111 09014KT
No reported NOTAMs for that airfield.



MET'MAP, your aeronautical weather chart ! - Copyright ORBIFLY December 2007 - Disclaimer

ORBIFLY MET'MAP TEAM :

Programming & Development : Alexandra Zaïnal
Concept & Development : Baudouin d'Aumeries
Co-Development & Prog : Marc-Olivier Méhu
Technical & hardware support : Manuel Goepfert

Contact : metmap@orbifly.com




SOURCES & CREDITS :

   NOAA